sensor_id;sensor_type;location;lat;lon;timestamp;P1;durP1;ratioP1;P2;durP2;ratioP2
6412;SDS011;3239;48.714;9.472;2023-07-31T08:47:42;2.00;;;1.33;;
6412;SDS011;3239;48.714;9.472;2023-07-31T08:50:11;2.77;;;1.37;;
6412;SDS011;3239;48.714;9.472;2023-07-31T08:52:39;4.53;;;1.40;;
6412;SDS011;3239;48.714;9.472;2023-07-31T08:55:06;3.90;;;1.67;;
6412;SDS011;3239;48.714;9.472;2023-07-31T08:57:34;4.37;;;1.50;;
6412;SDS011;3239;48.714;9.472;2023-07-31T09:00:02;4.60;;;1.80;;
6412;SDS011;3239;48.714;9.472;2023-07-31T09:03:13;4.73;;;1.50;;
6412;SDS011;3239;48.714;9.472;2023-07-31T09:05:33;6.57;;;1.60;;
6412;SDS011;3239;48.714;9.472;2023-07-31T09:08:05;10.63;;;2.10;;
6412;SDS011;3239;48.714;9.472;2023-07-31T09:10:32;2.70;;;1.80;;
6412;SDS011;3239;48.714;9.472;2023-07-31T09:12:58;4.23;;;1.60;;
6412;SDS011;3239;48.714;9.472;2023-07-31T09:15:24;3.93;;;1.73;;
6412;SDS011;3239;48.714;9.472;2023-07-31T09:18:01;3.23;;;1.80;;
6412;SDS011;3239;48.714;9.472;2023-07-31T09:20:28;4.83;;;1.60;;
6412;SDS011;3239;48.714;9.472;2023-07-31T09:22:54;4.10;;;2.10;;
6412;SDS011;3239;48.714;9.472;2023-07-31T09:25:21;3.80;;;1.97;;
6412;SDS011;3239;48.714;9.472;2023-07-31T09:27:50;5.10;;;2.00;;
6412;SDS011;3239;48.714;9.472;2023-07-31T09:30:18;2.60;;;1.50;;
6412;SDS011;3239;48.714;9.472;2023-07-31T09:32:45;3.47;;;1.80;;
6412;SDS011;3239;48.714;9.472;2023-07-31T09:35:27;3.90;;;2.10;;
6412;SDS011;3239;48.714;9.472;2023-07-31T09:37:58;3.00;;;1.83;;
6412;SDS011;3239;48.714;9.472;2023-07-31T09:40:45;4.63;;;1.90;;
6412;SDS011;3239;48.714;9.472;2023-07-31T09:43:16;4.70;;;2.30;;
6412;SDS011;3239;48.714;9.472;2023-07-31T09:45:46;3.60;;;1.83;;
6412;SDS011;3239;48.714;9.472;2023-07-31T09:48:14;4.93;;;1.60;;
6412;SDS011;3239;48.714;9.472;2023-07-31T09:50:42;3.33;;;1.80;;
6412;SDS011;3239;48.714;9.472;2023-07-31T09:53:11;3.23;;;1.60;;
6412;SDS011;3239;48.714;9.472;2023-07-31T09:55:38;2.70;;;1.60;;
6412;SDS011;3239;48.714;9.472;2023-07-31T09:58:06;4.97;;;1.87;;
6412;SDS011;3239;48.714;9.472;2023-07-31T10:00:36;4.43;;;1.77;;
6412;SDS011;3239;48.714;9.472;2023-07-31T10:03:06;4.20;;;1.50;;
6412;SDS011;3239;48.714;9.472;2023-07-31T10:05:36;4.60;;;2.10;;
6412;SDS011;3239;48.714;9.472;2023-07-31T10:08:10;4.27;;;2.47;;
6412;SDS011;3239;48.714;9.472;2023-07-31T10:10:44;3.70;;;1.80;;
6412;SDS011;3239;48.714;9.472;2023-07-31T10:13:11;4.97;;;2.10;;
6412;SDS011;3239;48.714;9.472;2023-07-31T10:15:38;5.10;;;1.90;;
6412;SDS011;3239;48.714;9.472;2023-07-31T10:18:06;5.37;;;2.80;;
6412;SDS011;3239;48.714;9.472;2023-07-31T10:20:32;3.70;;;1.80;;
6412;SDS011;3239;48.714;9.472;2023-07-31T10:22:58;2.53;;;1.60;;
6412;SDS011;3239;48.714;9.472;2023-07-31T10:25:26;4.50;;;2.20;;
6412;SDS011;3239;48.714;9.472;2023-07-31T10:27:53;4.13;;;1.90;;
6412;SDS011;3239;48.714;9.472;2023-07-31T10:30:22;3.77;;;1.70;;
6412;SDS011;3239;48.714;9.472;2023-07-31T10:32:52;4.53;;;2.10;;
6412;SDS011;3239;48.714;9.472;2023-07-31T10:35:19;4.17;;;2.00;;
6412;SDS011;3239;48.714;9.472;2023-07-31T10:37:47;4.03;;;1.67;;
6412;SDS011;3239;48.714;9.472;2023-07-31T10:40:17;2.90;;;1.93;;
6412;SDS011;3239;48.714;9.472;2023-07-31T10:48:05;4.87;;;1.90;;
6412;SDS011;3239;48.714;9.472;2023-07-31T10:50:38;4.20;;;1.70;;
6412;SDS011;3239;48.714;9.472;2023-07-31T10:53:32;5.37;;;1.93;;
6412;SDS011;3239;48.714;9.472;2023-07-31T10:56:01;4.73;;;1.90;;
6412;SDS011;3239;48.714;9.472;2023-07-31T10:58:29;3.93;;;1.97;;
6412;SDS011;3239;48.714;9.472;2023-07-31T11:01:00;5.30;;;2.10;;
6412;SDS011;3239;48.714;9.472;2023-07-31T11:03:43;5.27;;;2.30;;
6412;SDS011;3239;48.714;9.472;2023-07-31T11:06:17;3.10;;;2.03;;
6412;SDS011;3239;48.714;9.472;2023-07-31T11:08:44;6.63;;;2.13;;
6412;SDS011;3239;48.714;9.472;2023-07-31T11:11:13;3.90;;;1.80;;
6412;SDS011;3239;48.714;9.472;2023-07-31T11:13:51;2.83;;;1.67;;
6412;SDS011;3239;48.714;9.472;2023-07-31T11:16:19;3.30;;;1.97;;
6412;SDS011;3239;48.714;9.472;2023-07-31T11:18:48;3.93;;;1.80;;
6412;SDS011;3239;48.714;9.472;2023-07-31T11:21:15;3.70;;;1.73;;
6412;SDS011;3239;48.714;9.472;2023-07-31T11:23:50;5.43;;;2.50;;
6412;SDS011;3239;48.714;9.472;2023-07-31T11:26:18;5.50;;;2.10;;
6412;SDS011;3239;48.714;9.472;2023-07-31T11:28:48;3.40;;;1.90;;
6412;SDS011;3239;48.714;9.472;2023-07-31T11:31:15;6.80;;;3.27;;
6412;SDS011;3239;48.714;9.472;2023-07-31T11:33:42;3.63;;;1.90;;
6412;SDS011;3239;48.714;9.472;2023-07-31T11:36:14;4.07;;;2.30;;
6412;SDS011;3239;48.714;9.472;2023-07-31T11:38:42;3.20;;;1.87;;
6412;SDS011;3239;48.714;9.472;2023-07-31T11:41:08;3.23;;;1.60;;
6412;SDS011;3239;48.714;9.472;2023-07-31T11:43:34;5.13;;;2.40;;
6412;SDS011;3239;48.714;9.472;2023-07-31T11:46:01;3.13;;;1.90;;
6412;SDS011;3239;48.714;9.472;2023-07-31T11:48:31;6.53;;;2.20;;
6412;SDS011;3239;48.714;9.472;2023-07-31T11:51:08;2.53;;;2.00;;
6412;SDS011;3239;48.714;9.472;2023-07-31T11:56:17;2.60;;;1.70;;
6412;SDS011;3239;48.714;9.472;2023-07-31T11:58:48;4.87;;;2.27;;
6412;SDS011;3239;48.714;9.472;2023-07-31T12:01:23;3.70;;;1.80;;
6412;SDS011;3239;48.714;9.472;2023-07-31T12:03:51;4.43;;;1.93;;
6412;SDS011;3239;48.714;9.472;2023-07-31T12:06:17;3.87;;;2.47;;
6412;SDS011;3239;48.714;9.472;2023-07-31T12:08:45;2.47;;;2.20;;
6412;SDS011;3239;48.714;9.472;2023-07-31T12:11:12;6.40;;;2.10;;
6412;SDS011;3239;48.714;9.472;2023-07-31T12:13:42;3.03;;;1.97;;
6412;SDS011;3239;48.714;9.472;2023-07-31T12:16:08;5.33;;;2.30;;
6412;SDS011;3239;48.714;9.472;2023-07-31T12:18:35;2.93;;;2.10;;
6412;SDS011;3239;48.714;9.472;2023-07-31T12:21:04;3.27;;;2.47;;
6412;SDS011;3239;48.714;9.472;2023-07-31T12:23:33;2.60;;;2.07;;
6412;SDS011;3239;48.714;9.472;2023-07-31T12:28:50;4.60;;;2.27;;
6412;SDS011;3239;48.714;9.472;2023-07-31T12:31:22;3.60;;;2.03;;
6412;SDS011;3239;48.714;9.472;2023-07-31T12:33:49;3.07;;;1.83;;
6412;SDS011;3239;48.714;9.472;2023-07-31T12:36:17;2.93;;;1.90;;
6412;SDS011;3239;48.714;9.472;2023-07-31T12:38:51;5.53;;;2.43;;
6412;SDS011;3239;48.714;9.472;2023-07-31T12:41:17;6.13;;;2.43;;
6412;SDS011;3239;48.714;9.472;2023-07-31T12:43:44;4.53;;;2.20;;
6412;SDS011;3239;48.714;9.472;2023-07-31T12:46:11;3.80;;;2.20;;
6412;SDS011;3239;48.714;9.472;2023-07-31T12:48:38;3.40;;;2.33;;
6412;SDS011;3239;48.714;9.472;2023-07-31T12:51:05;3.97;;;1.90;;
6412;SDS011;3239;48.714;9.472;2023-07-31T12:53:34;4.20;;;2.23;;
6412;SDS011;3239;48.714;9.472;2023-07-31T12:56:01;8.43;;;2.67;;
6412;SDS011;3239;48.714;9.472;2023-07-31T12:58:27;3.40;;;2.30;;
6412;SDS011;3239;48.714;9.472;2023-07-31T13:00:52;5.43;;;2.57;;
6412;SDS011;3239;48.714;9.472;2023-07-31T13:03:18;3.13;;;2.13;;
6412;SDS011;3239;48.714;9.472;2023-07-31T13:05:44;4.93;;;2.13;;
6412;SDS011;3239;48.714;9.472;2023-07-31T13:08:10;3.77;;;2.50;;
6412;SDS011;3239;48.714;9.472;2023-07-31T13:10:36;4.70;;;2.40;;
6412;SDS011;3239;48.714;9.472;2023-07-31T13:13:02;3.23;;;2.00;;
6412;SDS011;3239;48.714;9.472;2023-07-31T13:15:28;3.30;;;2.07;;
6412;SDS011;3239;48.714;9.472;2023-07-31T13:17:54;4.50;;;2.27;;
6412;SDS011;3239;48.714;9.472;2023-07-31T13:20:20;5.80;;;2.07;;
6412;SDS011;3239;48.714;9.472;2023-07-31T13:22:46;4.87;;;2.10;;
6412;SDS011;3239;48.714;9.472;2023-07-31T13:25:11;3.20;;;1.83;;
6412;SDS011;3239;48.714;9.472;2023-07-31T13:27:37;4.97;;;2.20;;
6412;SDS011;3239;48.714;9.472;2023-07-31T13:30:03;5.07;;;2.03;;
6412;SDS011;3239;48.714;9.472;2023-07-31T13:32:30;6.77;;;1.97;;
6412;SDS011;3239;48.714;9.472;2023-07-31T13:34:55;2.67;;;1.90;;
6412;SDS011;3239;48.714;9.472;2023-07-31T13:37:21;3.30;;;2.00;;
6412;SDS011;3239;48.714;9.472;2023-07-31T13:39:47;7.10;;;2.17;;
6412;SDS011;3239;48.714;9.472;2023-07-31T13:42:13;3.93;;;2.00;;
6412;SDS011;3239;48.714;9.472;2023-07-31T13:44:38;5.27;;;1.97;;
6412;SDS011;3239;48.714;9.472;2023-07-31T13:47:05;7.30;;;2.60;;
6412;SDS011;3239;48.714;9.472;2023-07-31T13:49:31;3.00;;;1.93;;
6412;SDS011;3239;48.714;9.472;2023-07-31T13:51:58;4.47;;;1.63;;
6412;SDS011;3239;48.714;9.472;2023-07-31T13:54:24;2.83;;;2.00;;
6412;SDS011;3239;48.714;9.472;2023-07-31T13:56:50;4.47;;;2.27;;
6412;SDS011;3239;48.714;9.472;2023-07-31T13:59:17;4.83;;;2.30;;
6412;SDS011;3239;48.714;9.472;2023-07-31T14:01:43;3.90;;;2.13;;
6412;SDS011;3239;48.714;9.472;2023-07-31T14:04:09;4.50;;;2.03;;
6412;SDS011;3239;48.714;9.472;2023-07-31T14:06:35;4.10;;;1.60;;
6412;SDS011;3239;48.714;9.472;2023-07-31T14:09:01;3.00;;;2.10;;
6412;SDS011;3239;48.714;9.472;2023-07-31T14:11:28;3.50;;;1.90;;
6412;SDS011;3239;48.714;9.472;2023-07-31T14:13:56;3.10;;;1.90;;
6412;SDS011;3239;48.714;9.472;2023-07-31T14:16:22;4.67;;;2.53;;
6412;SDS011;3239;48.714;9.472;2023-07-31T14:18:48;4.13;;;2.40;;
6412;SDS011;3239;48.714;9.472;2023-07-31T14:21:14;5.30;;;2.30;;
6412;SDS011;3239;48.714;9.472;2023-07-31T14:23:40;5.60;;;2.43;;
6412;SDS011;3239;48.714;9.472;2023-07-31T14:26:07;3.70;;;2.07;;
6412;SDS011;3239;48.714;9.472;2023-07-31T14:28:33;2.57;;;1.80;;
6412;SDS011;3239;48.714;9.472;2023-07-31T14:30:59;3.13;;;1.57;;
6412;SDS011;3239;48.714;9.472;2023-07-31T14:33:25;7.30;;;2.10;;
6412;SDS011;3239;48.714;9.472;2023-07-31T14:35:51;2.77;;;1.73;;
6412;SDS011;3239;48.714;9.472;2023-07-31T14:38:17;3.33;;;1.60;;
6412;SDS011;3239;48.714;9.472;2023-07-31T14:40:42;2.40;;;1.70;;
6412;SDS011;3239;48.714;9.472;2023-07-31T14:43:08;3.27;;;2.10;;
6412;SDS011;3239;48.714;9.472;2023-07-31T14:45:34;2.50;;;2.00;;
6412;SDS011;3239;48.714;9.472;2023-07-31T14:48:00;3.43;;;1.90;;
6412;SDS011;3239;48.714;9.472;2023-07-31T14:50:26;3.40;;;2.23;;
6412;SDS011;3239;48.714;9.472;2023-07-31T14:52:52;6.07;;;2.40;;
6412;SDS011;3239;48.714;9.472;2023-07-31T14:55:18;2.80;;;1.83;;
6412;SDS011;3239;48.714;9.472;2023-07-31T14:57:44;3.70;;;2.03;;
6412;SDS011;3239;48.714;9.472;2023-07-31T15:00:10;3.73;;;2.23;;
6412;SDS011;3239;48.714;9.472;2023-07-31T15:02:36;2.80;;;1.90;;
6412;SDS011;3239;48.714;9.472;2023-07-31T15:05:02;3.70;;;2.20;;
6412;SDS011;3239;48.714;9.472;2023-07-31T15:07:29;6.57;;;2.23;;
6412;SDS011;3239;48.714;9.472;2023-07-31T15:09:55;5.00;;;2.37;;
6412;SDS011;3239;48.714;9.472;2023-07-31T15:12:20;2.57;;;2.17;;
6412;SDS011;3239;48.714;9.472;2023-07-31T15:14:47;3.10;;;2.20;;
6412;SDS011;3239;48.714;9.472;2023-07-31T15:17:14;4.20;;;1.93;;
6412;SDS011;3239;48.714;9.472;2023-07-31T15:19:40;3.40;;;1.93;;
6412;SDS011;3239;48.714;9.472;2023-07-31T15:22:06;5.60;;;2.20;;
6412;SDS011;3239;48.714;9.472;2023-07-31T15:24:32;2.50;;;1.90;;
6412;SDS011;3239;48.714;9.472;2023-07-31T15:26:58;4.53;;;2.03;;
6412;SDS011;3239;48.714;9.472;2023-07-31T15:29:24;2.43;;;1.70;;
6412;SDS011;3239;48.714;9.472;2023-07-31T15:31:49;3.60;;;2.23;;
6412;SDS011;3239;48.714;9.472;2023-07-31T15:34:15;3.23;;;2.07;;
6412;SDS011;3239;48.714;9.472;2023-07-31T15:36:42;3.53;;;2.10;;
6412;SDS011;3239;48.714;9.472;2023-07-31T15:39:08;2.93;;;1.90;;
6412;SDS011;3239;48.714;9.472;2023-07-31T15:41:34;4.57;;;2.50;;
6412;SDS011;3239;48.714;9.472;2023-07-31T15:44:01;3.60;;;2.00;;
6412;SDS011;3239;48.714;9.472;2023-07-31T15:46:27;4.47;;;2.20;;
6412;SDS011;3239;48.714;9.472;2023-07-31T15:48:53;4.20;;;2.07;;
6412;SDS011;3239;48.714;9.472;2023-07-31T15:51:19;4.53;;;1.90;;
6412;SDS011;3239;48.714;9.472;2023-07-31T15:53:45;2.67;;;1.80;;
6412;SDS011;3239;48.714;9.472;2023-07-31T15:56:10;6.20;;;2.37;;
6412;SDS011;3239;48.714;9.472;2023-07-31T15:58:36;2.73;;;1.97;;
6412;SDS011;3239;48.714;9.472;2023-07-31T16:01:02;3.40;;;2.00;;
6412;SDS011;3239;48.714;9.472;2023-07-31T16:03:28;4.30;;;2.00;;
6412;SDS011;3239;48.714;9.472;2023-07-31T16:05:54;3.50;;;2.30;;
6412;SDS011;3239;48.714;9.472;2023-07-31T16:08:20;4.03;;;2.33;;
6412;SDS011;3239;48.714;9.472;2023-07-31T16:10:45;3.10;;;2.30;;
6412;SDS011;3239;48.714;9.472;2023-07-31T16:13:11;3.83;;;2.70;;
6412;SDS011;3239;48.714;9.472;2023-07-31T16:15:37;3.10;;;1.80;;
6412;SDS011;3239;48.714;9.472;2023-07-31T16:18:03;2.63;;;1.80;;
6412;SDS011;3239;48.714;9.472;2023-07-31T16:20:29;3.30;;;2.00;;
6412;SDS011;3239;48.714;9.472;2023-07-31T16:22:55;4.17;;;2.60;;
6412;SDS011;3239;48.714;9.472;2023-07-31T16:25:20;3.40;;;2.10;;
6412;SDS011;3239;48.714;9.472;2023-07-31T16:27:46;3.90;;;2.60;;
6412;SDS011;3239;48.714;9.472;2023-07-31T16:30:12;2.07;;;1.73;;
6412;SDS011;3239;48.714;9.472;2023-07-31T16:32:38;4.60;;;1.80;;
6412;SDS011;3239;48.714;9.472;2023-07-31T16:35:04;3.27;;;2.07;;
6412;SDS011;3239;48.714;9.472;2023-07-31T16:37:31;4.37;;;2.40;;
6412;SDS011;3239;48.714;9.472;2023-07-31T16:39:57;2.97;;;2.10;;
6412;SDS011;3239;48.714;9.472;2023-07-31T16:42:22;3.10;;;2.10;;
6412;SDS011;3239;48.714;9.472;2023-07-31T16:44:48;3.10;;;1.80;;
6412;SDS011;3239;48.714;9.472;2023-07-31T16:47:14;4.73;;;2.97;;
6412;SDS011;3239;48.714;9.472;2023-07-31T16:49:40;3.93;;;2.17;;
6412;SDS011;3239;48.714;9.472;2023-07-31T16:52:06;6.53;;;2.60;;
6412;SDS011;3239;48.714;9.472;2023-07-31T16:54:33;3.90;;;2.50;;
6412;SDS011;3239;48.714;9.472;2023-07-31T16:56:59;4.77;;;2.13;;
6412;SDS011;3239;48.714;9.472;2023-07-31T16:59:26;3.60;;;2.20;;
6412;SDS011;3239;48.714;9.472;2023-07-31T17:01:52;2.70;;;2.20;;
6412;SDS011;3239;48.714;9.472;2023-07-31T17:04:18;4.53;;;2.00;;
6412;SDS011;3239;48.714;9.472;2023-07-31T17:06:43;4.17;;;2.67;;
6412;SDS011;3239;48.714;9.472;2023-07-31T17:09:09;3.90;;;1.93;;
6412;SDS011;3239;48.714;9.472;2023-07-31T17:11:35;3.90;;;2.53;;
6412;SDS011;3239;48.714;9.472;2023-07-31T17:14:02;2.90;;;1.80;;
6412;SDS011;3239;48.714;9.472;2023-07-31T17:16:31;2.63;;;1.73;;
6412;SDS011;3239;48.714;9.472;2023-07-31T17:18:59;5.70;;;2.03;;
6412;SDS011;3239;48.714;9.472;2023-07-31T17:21:26;3.87;;;2.27;;
6412;SDS011;3239;48.714;9.472;2023-07-31T17:23:52;2.77;;;2.40;;
6412;SDS011;3239;48.714;9.472;2023-07-31T17:26:18;2.50;;;1.70;;
6412;SDS011;3239;48.714;9.472;2023-07-31T17:28:44;2.90;;;1.40;;
6412;SDS011;3239;48.714;9.472;2023-07-31T17:31:10;1.93;;;1.67;;
6412;SDS011;3239;48.714;9.472;2023-07-31T17:33:37;1.83;;;1.30;;
6412;SDS011;3239;48.714;9.472;2023-07-31T17:36:07;1.90;;;1.60;;
6412;SDS011;3239;48.714;9.472;2023-07-31T17:38:33;3.33;;;2.10;;
6412;SDS011;3239;48.714;9.472;2023-07-31T17:40:58;2.13;;;1.77;;
6412;SDS011;3239;48.714;9.472;2023-07-31T17:43:24;3.87;;;1.97;;
6412;SDS011;3239;48.714;9.472;2023-07-31T17:45:50;3.20;;;2.07;;
6412;SDS011;3239;48.714;9.472;2023-07-31T17:48:17;3.20;;;1.70;;
6412;SDS011;3239;48.714;9.472;2023-07-31T17:50:48;3.80;;;2.17;;
6412;SDS011;3239;48.714;9.472;2023-07-31T17:53:17;2.27;;;1.87;;
6412;SDS011;3239;48.714;9.472;2023-07-31T17:55:44;2.90;;;2.10;;
6412;SDS011;3239;48.714;9.472;2023-07-31T17:58:09;2.50;;;1.60;;
6412;SDS011;3239;48.714;9.472;2023-07-31T18:00:35;3.17;;;2.10;;
6412;SDS011;3239;48.714;9.472;2023-07-31T18:03:01;3.47;;;1.83;;
6412;SDS011;3239;48.714;9.472;2023-07-31T18:05:27;2.83;;;1.83;;
6412;SDS011;3239;48.714;9.472;2023-07-31T18:07:52;2.77;;;1.80;;
6412;SDS011;3239;48.714;9.472;2023-07-31T18:10:18;2.70;;;1.87;;
6412;SDS011;3239;48.714;9.472;2023-07-31T18:12:44;2.37;;;1.60;;
6412;SDS011;3239;48.714;9.472;2023-07-31T18:15:10;2.30;;;1.70;;
6412;SDS011;3239;48.714;9.472;2023-07-31T18:17:35;3.67;;;1.93;;
6412;SDS011;3239;48.714;9.472;2023-07-31T18:20:01;1.90;;;1.20;;
6412;SDS011;3239;48.714;9.472;2023-07-31T18:22:28;2.23;;;1.40;;
6412;SDS011;3239;48.714;9.472;2023-07-31T18:24:53;1.93;;;1.43;;
6412;SDS011;3239;48.714;9.472;2023-07-31T18:27:19;2.20;;;1.53;;
6412;SDS011;3239;48.714;9.472;2023-07-31T18:29:45;2.10;;;1.73;;
6412;SDS011;3239;48.714;9.472;2023-07-31T18:32:11;2.73;;;1.80;;
6412;SDS011;3239;48.714;9.472;2023-07-31T18:34:37;1.93;;;1.60;;
6412;SDS011;3239;48.714;9.472;2023-07-31T18:37:03;3.17;;;2.00;;
6412;SDS011;3239;48.714;9.472;2023-07-31T18:39:30;1.70;;;1.17;;
6412;SDS011;3239;48.714;9.472;2023-07-31T18:41:56;2.63;;;1.90;;
6412;SDS011;3239;48.714;9.472;2023-07-31T18:44:22;2.40;;;1.80;;
6412;SDS011;3239;48.714;9.472;2023-07-31T18:46:48;2.00;;;1.60;;
6412;SDS011;3239;48.714;9.472;2023-07-31T18:49:13;3.23;;;2.10;;
6412;SDS011;3239;48.714;9.472;2023-07-31T18:51:39;4.47;;;2.30;;
6412;SDS011;3239;48.714;9.472;2023-07-31T18:54:05;3.73;;;2.50;;
6412;SDS011;3239;48.714;9.472;2023-07-31T18:56:31;3.50;;;2.30;;
6412;SDS011;3239;48.714;9.472;2023-07-31T18:58:57;3.50;;;1.90;;
6412;SDS011;3239;48.714;9.472;2023-07-31T19:01:23;3.07;;;2.17;;
6412;SDS011;3239;48.714;9.472;2023-07-31T19:03:49;3.17;;;2.20;;
6412;SDS011;3239;48.714;9.472;2023-07-31T19:06:15;2.73;;;2.10;;
6412;SDS011;3239;48.714;9.472;2023-07-31T19:08:41;4.00;;;2.23;;
6412;SDS011;3239;48.714;9.472;2023-07-31T19:11:07;2.73;;;2.10;;
6412;SDS011;3239;48.714;9.472;2023-07-31T19:13:36;2.70;;;2.40;;
6412;SDS011;3239;48.714;9.472;2023-07-31T19:16:03;3.37;;;2.20;;
6412;SDS011;3239;48.714;9.472;2023-07-31T19:18:30;2.93;;;1.83;;
6412;SDS011;3239;48.714;9.472;2023-07-31T19:20:56;4.13;;;2.10;;
6412;SDS011;3239;48.714;9.472;2023-07-31T19:23:22;2.43;;;2.00;;
6412;SDS011;3239;48.714;9.472;2023-07-31T19:25:48;3.17;;;1.93;;
6412;SDS011;3239;48.714;9.472;2023-07-31T19:28:14;4.47;;;2.40;;
6412;SDS011;3239;48.714;9.472;2023-07-31T19:30:40;3.30;;;2.40;;
6412;SDS011;3239;48.714;9.472;2023-07-31T19:33:06;8.57;;;2.40;;
6412;SDS011;3239;48.714;9.472;2023-07-31T19:35:32;3.40;;;1.93;;
6412;SDS011;3239;48.714;9.472;2023-07-31T19:37:58;5.23;;;2.30;;
6412;SDS011;3239;48.714;9.472;2023-07-31T19:40:23;3.07;;;2.23;;
6412;SDS011;3239;48.714;9.472;2023-07-31T19:42:50;3.67;;;1.87;;
6412;SDS011;3239;48.714;9.472;2023-07-31T19:45:24;3.27;;;2.40;;
6412;SDS011;3239;48.714;9.472;2023-07-31T19:47:51;3.17;;;2.57;;
6412;SDS011;3239;48.714;9.472;2023-07-31T19:50:17;5.23;;;2.27;;
6412;SDS011;3239;48.714;9.472;2023-07-31T19:52:43;4.90;;;2.67;;
6412;SDS011;3239;48.714;9.472;2023-07-31T19:55:09;3.40;;;2.40;;
6412;SDS011;3239;48.714;9.472;2023-07-31T19:57:34;4.37;;;2.10;;
6412;SDS011;3239;48.714;9.472;2023-07-31T20:00:00;3.10;;;2.60;;
6412;SDS011;3239;48.714;9.472;2023-07-31T20:02:27;4.03;;;2.50;;
6412;SDS011;3239;48.714;9.472;2023-07-31T20:04:53;4.33;;;2.80;;
6412;SDS011;3239;48.714;9.472;2023-07-31T20:07:19;3.20;;;2.30;;
6412;SDS011;3239;48.714;9.472;2023-07-31T20:09:44;3.33;;;2.03;;
6412;SDS011;3239;48.714;9.472;2023-07-31T20:12:10;2.90;;;2.23;;
6412;SDS011;3239;48.714;9.472;2023-07-31T20:14:36;3.30;;;2.10;;
6412;SDS011;3239;48.714;9.472;2023-07-31T20:17:01;4.67;;;3.00;;
6412;SDS011;3239;48.714;9.472;2023-07-31T20:19:27;5.83;;;2.50;;
6412;SDS011;3239;48.714;9.472;2023-07-31T20:21:53;4.60;;;3.00;;
6412;SDS011;3239;48.714;9.472;2023-07-31T20:24:20;3.70;;;2.77;;
6412;SDS011;3239;48.714;9.472;2023-07-31T20:26:47;4.60;;;2.60;;
6412;SDS011;3239;48.714;9.472;2023-07-31T20:29:12;2.73;;;2.10;;
6412;SDS011;3239;48.714;9.472;2023-07-31T20:31:38;4.17;;;2.60;;
6412;SDS011;3239;48.714;9.472;2023-07-31T20:34:05;3.27;;;2.77;;
6412;SDS011;3239;48.714;9.472;2023-07-31T20:36:33;3.10;;;2.20;;
6412;SDS011;3239;48.714;9.472;2023-07-31T20:39:00;4.47;;;2.57;;
6412;SDS011;3239;48.714;9.472;2023-07-31T20:41:26;3.20;;;2.20;;
6412;SDS011;3239;48.714;9.472;2023-07-31T20:43:52;5.53;;;2.83;;
6412;SDS011;3239;48.714;9.472;2023-07-31T20:46:18;4.73;;;3.30;;
6412;SDS011;3239;48.714;9.472;2023-07-31T20:48:44;3.30;;;2.40;;
6412;SDS011;3239;48.714;9.472;2023-07-31T20:51:09;3.30;;;2.30;;
6412;SDS011;3239;48.714;9.472;2023-07-31T20:53:35;2.53;;;2.20;;
6412;SDS011;3239;48.714;9.472;2023-07-31T20:56:01;3.20;;;2.27;;
6412;SDS011;3239;48.714;9.472;2023-07-31T20:58:27;3.60;;;2.43;;
6412;SDS011;3239;48.714;9.472;2023-07-31T21:00:53;2.97;;;2.40;;
6412;SDS011;3239;48.714;9.472;2023-07-31T21:03:19;5.73;;;3.00;;
6412;SDS011;3239;48.714;9.472;2023-07-31T21:05:48;4.00;;;2.10;;
6412;SDS011;3239;48.714;9.472;2023-07-31T21:08:18;3.47;;;2.60;;
6412;SDS011;3239;48.714;9.472;2023-07-31T21:10:45;2.47;;;2.10;;
6412;SDS011;3239;48.714;9.472;2023-07-31T21:13:13;4.23;;;2.77;;
6412;SDS011;3239;48.714;9.472;2023-07-31T21:15:41;3.10;;;2.63;;
6412;SDS011;3239;48.714;9.472;2023-07-31T21:18:07;3.50;;;2.40;;
6412;SDS011;3239;48.714;9.472;2023-07-31T21:20:34;3.60;;;2.70;;
6412;SDS011;3239;48.714;9.472;2023-07-31T21:23:01;2.97;;;2.20;;
6412;SDS011;3239;48.714;9.472;2023-07-31T21:25:34;3.83;;;2.20;;
6412;SDS011;3239;48.714;9.472;2023-07-31T21:28:01;5.43;;;2.17;;
6412;SDS011;3239;48.714;9.472;2023-07-31T21:30:30;2.70;;;2.30;;
6412;SDS011;3239;48.714;9.472;2023-07-31T21:32:57;4.03;;;2.70;;
6412;SDS011;3239;48.714;9.472;2023-07-31T21:35:23;3.83;;;2.47;;
6412;SDS011;3239;48.714;9.472;2023-07-31T21:37:49;2.50;;;2.20;;
6412;SDS011;3239;48.714;9.472;2023-07-31T21:40:18;3.70;;;2.40;;
6412;SDS011;3239;48.714;9.472;2023-07-31T21:42:44;2.60;;;2.20;;
6412;SDS011;3239;48.714;9.472;2023-07-31T21:45:10;2.60;;;2.10;;
6412;SDS011;3239;48.714;9.472;2023-07-31T21:47:36;2.60;;;2.40;;
6412;SDS011;3239;48.714;9.472;2023-07-31T21:50:02;3.30;;;2.80;;
6412;SDS011;3239;48.714;9.472;2023-07-31T21:52:28;4.07;;;2.80;;
6412;SDS011;3239;48.714;9.472;2023-07-31T21:54:54;3.50;;;2.57;;
6412;SDS011;3239;48.714;9.472;2023-07-31T21:57:19;6.10;;;2.80;;
6412;SDS011;3239;48.714;9.472;2023-07-31T21:59:45;4.00;;;2.90;;
6412;SDS011;3239;48.714;9.472;2023-07-31T22:02:12;4.30;;;2.67;;
6412;SDS011;3239;48.714;9.472;2023-07-31T22:04:37;3.53;;;2.93;;
6412;SDS011;3239;48.714;9.472;2023-07-31T22:07:06;3.40;;;2.60;;
6412;SDS011;3239;48.714;9.472;2023-07-31T22:09:32;4.73;;;3.10;;
6412;SDS011;3239;48.714;9.472;2023-07-31T22:11:58;2.60;;;2.37;;
6412;SDS011;3239;48.714;9.472;2023-07-31T22:14:24;3.23;;;2.67;;
6412;SDS011;3239;48.714;9.472;2023-07-31T22:16:49;3.10;;;2.80;;
6412;SDS011;3239;48.714;9.472;2023-07-31T22:19:15;6.37;;;2.80;;
6412;SDS011;3239;48.714;9.472;2023-07-31T22:21:41;3.23;;;2.80;;
6412;SDS011;3239;48.714;9.472;2023-07-31T22:24:07;6.67;;;3.67;;
6412;SDS011;3239;48.714;9.472;2023-07-31T22:26:32;5.17;;;3.77;;
6412;SDS011;3239;48.714;9.472;2023-07-31T22:28:58;4.03;;;3.40;;
6412;SDS011;3239;48.714;9.472;2023-07-31T22:31:24;3.90;;;2.83;;
6412;SDS011;3239;48.714;9.472;2023-07-31T22:33:50;3.93;;;2.73;;
6412;SDS011;3239;48.714;9.472;2023-07-31T22:36:15;4.30;;;3.10;;
6412;SDS011;3239;48.714;9.472;2023-07-31T22:38:41;4.10;;;2.33;;
6412;SDS011;3239;48.714;9.472;2023-07-31T22:41:07;4.83;;;2.83;;
6412;SDS011;3239;48.714;9.472;2023-07-31T22:43:33;5.23;;;3.10;;
6412;SDS011;3239;48.714;9.472;2023-07-31T22:45:59;3.87;;;2.83;;
6412;SDS011;3239;48.714;9.472;2023-07-31T22:48:25;3.87;;;3.30;;
6412;SDS011;3239;48.714;9.472;2023-07-31T22:50:51;5.80;;;3.77;;
6412;SDS011;3239;48.714;9.472;2023-07-31T22:53:17;3.50;;;2.80;;
6412;SDS011;3239;48.714;9.472;2023-07-31T22:55:43;3.20;;;2.70;;
6412;SDS011;3239;48.714;9.472;2023-07-31T22:58:09;3.03;;;2.73;;
6412;SDS011;3239;48.714;9.472;2023-07-31T23:00:34;6.43;;;2.40;;
6412;SDS011;3239;48.714;9.472;2023-07-31T23:03:00;3.73;;;2.60;;
6412;SDS011;3239;48.714;9.472;2023-07-31T23:05:26;3.67;;;3.10;;
6412;SDS011;3239;48.714;9.472;2023-07-31T23:07:52;3.40;;;2.60;;
6412;SDS011;3239;48.714;9.472;2023-07-31T23:10:17;3.07;;;2.40;;
6412;SDS011;3239;48.714;9.472;2023-07-31T23:12:43;4.40;;;3.13;;
6412;SDS011;3239;48.714;9.472;2023-07-31T23:15:09;5.60;;;2.63;;
6412;SDS011;3239;48.714;9.472;2023-07-31T23:17:34;4.73;;;2.90;;
6412;SDS011;3239;48.714;9.472;2023-07-31T23:20:00;4.17;;;2.63;;
6412;SDS011;3239;48.714;9.472;2023-07-31T23:22:26;2.80;;;2.30;;
6412;SDS011;3239;48.714;9.472;2023-07-31T23:24:52;2.73;;;2.43;;
6412;SDS011;3239;48.714;9.472;2023-07-31T23:27:18;3.90;;;2.60;;
6412;SDS011;3239;48.714;9.472;2023-07-31T23:29:44;3.13;;;2.60;;
6412;SDS011;3239;48.714;9.472;2023-07-31T23:32:09;3.97;;;3.17;;
6412;SDS011;3239;48.714;9.472;2023-07-31T23:34:36;2.80;;;2.40;;
6412;SDS011;3239;48.714;9.472;2023-07-31T23:37:02;4.37;;;2.87;;
6412;SDS011;3239;48.714;9.472;2023-07-31T23:39:27;3.63;;;2.60;;
6412;SDS011;3239;48.714;9.472;2023-07-31T23:41:53;2.80;;;2.07;;
6412;SDS011;3239;48.714;9.472;2023-07-31T23:44:19;3.20;;;2.40;;
6412;SDS011;3239;48.714;9.472;2023-07-31T23:46:45;4.10;;;2.80;;
6412;SDS011;3239;48.714;9.472;2023-07-31T23:49:12;4.67;;;2.70;;
6412;SDS011;3239;48.714;9.472;2023-07-31T23:51:39;4.13;;;2.87;;
6412;SDS011;3239;48.714;9.472;2023-07-31T23:54:06;4.63;;;2.70;;
6412;SDS011;3239;48.714;9.472;2023-07-31T23:56:34;2.50;;;2.20;;
6412;SDS011;3239;48.714;9.472;2023-07-31T23:58:59;5.83;;;2.50;;
